sensor_id;sensor_type;location;lat;lon;timestamp;temperature;humidity
17053;DHT22;8643;48.824;11.422;2023-01-24T00:01:44;1.70;99.90
17053;DHT22;8643;48.824;11.422;2023-01-24T00:04:14;1.30;99.90
17053;DHT22;8643;48.824;11.422;2023-01-24T00:06:42;1.70;99.90
17053;DHT22;8643;48.824;11.422;2023-01-24T00:09:10;1.70;99.90
17053;DHT22;8643;48.824;11.422;2023-01-24T00:11:39;1.70;99.90
17053;DHT22;8643;48.824;11.422;2023-01-24T00:14:07;1.60;99.90
17053;DHT22;8643;48.824;11.422;2023-01-24T00:16:35;1.70;99.90
17053;DHT22;8643;48.824;11.422;2023-01-24T00:19:05;1.70;99.90
17053;DHT22;8643;48.824;11.422;2023-01-24T00:21:33;1.00;99.90
17053;DHT22;8643;48.824;11.422;2023-01-24T00:24:02;1.70;99.90
17053;DHT22;8643;48.824;11.422;2023-01-24T00:26:30;2.30;99.90
17053;DHT22;8643;48.824;11.422;2023-01-24T00:28:59;1.70;99.90
17053;DHT22;8643;48.824;11.422;2023-01-24T00:31:27;1.60;99.90
17053;DHT22;8643;48.824;11.422;2023-01-24T00:33:56;1.70;99.90
17053;DHT22;8643;48.824;11.422;2023-01-24T00:44:36;1.60;99.90
17053;DHT22;8643;48.824;11.422;2023-01-24T00:47:04;1.60;99.90
17053;DHT22;8643;48.824;11.422;2023-01-24T00:49:33;1.60;99.90
17053;DHT22;8643;48.824;11.422;2023-01-24T00:54:30;1.60;99.90
17053;DHT22;8643;48.824;11.422;2023-01-24T00:59:29;1.60;99.90
17053;DHT22;8643;48.824;11.422;2023-01-24T01:04:26;1.70;99.90
17053;DHT22;8643;48.824;11.422;2023-01-24T01:06:54;1.60;99.90
17053;DHT22;8643;48.824;11.422;2023-01-24T01:09:25;1.70;99.90
17053;DHT22;8643;48.824;11.422;2023-01-24T01:19:21;1.70;99.90
17053;DHT22;8643;48.824;11.422;2023-01-24T01:21:49;2.40;99.90
17053;DHT22;8643;48.824;11.422;2023-01-24T01:26:47;1.70;99.90
17053;DHT22;8643;48.824;11.422;2023-01-24T01:29:16;1.70;99.90
17053;DHT22;8643;48.824;11.422;2023-01-24T01:31:45;1.70;99.90
17053;DHT22;8643;48.824;11.422;2023-01-24T01:34:16;1.80;99.90
17053;DHT22;8643;48.824;11.422;2023-01-24T01:39:13;1.80;99.90
17053;DHT22;8643;48.824;11.422;2023-01-24T01:41:41;1.70;99.90
17053;DHT22;8643;48.824;11.422;2023-01-24T01:44:22;1.70;99.90
17053;DHT22;8643;48.824;11.422;2023-01-24T01:47:18;1.70;99.90
17053;DHT22;8643;48.824;11.422;2023-01-24T01:49:56;1.70;99.90
17053;DHT22;8643;48.824;11.422;2023-01-24T01:52:31;1.70;99.90
17053;DHT22;8643;48.824;11.422;2023-01-24T01:55:08;1.70;99.90
17053;DHT22;8643;48.824;11.422;2023-01-24T02:00:12;1.70;99.90
17053;DHT22;8643;48.824;11.422;2023-01-24T02:02:48;1.80;99.90
17053;DHT22;8643;48.824;11.422;2023-01-24T02:05:23;1.70;99.90
17053;DHT22;8643;48.824;11.422;2023-01-24T02:07:56;1.80;99.90
17053;DHT22;8643;48.824;11.422;2023-01-24T02:10:28;1.80;99.90
17053;DHT22;8643;48.824;11.422;2023-01-24T02:15:49;3.80;99.90
17053;DHT22;8643;48.824;11.422;2023-01-24T02:18:36;1.70;99.90
17053;DHT22;8643;48.824;11.422;2023-01-24T02:21:07;1.70;99.90
17053;DHT22;8643;48.824;11.422;2023-01-24T02:23:46;1.70;99.90
17053;DHT22;8643;48.824;11.422;2023-01-24T02:26:21;1.80;99.90
17053;DHT22;8643;48.824;11.422;2023-01-24T02:28:55;1.70;99.90
17053;DHT22;8643;48.824;11.422;2023-01-24T02:33:56;1.80;99.90
17053;DHT22;8643;48.824;11.422;2023-01-24T02:36:28;1.60;99.90
17053;DHT22;8643;48.824;11.422;2023-01-24T02:39:04;1.80;99.90
17053;DHT22;8643;48.824;11.422;2023-01-24T02:41:43;1.80;99.90
17053;DHT22;8643;48.824;11.422;2023-01-24T02:46:49;1.70;99.90
17053;DHT22;8643;48.824;11.422;2023-01-24T02:57:02;1.70;99.90
17053;DHT22;8643;48.824;11.422;2023-01-24T02:59:48;1.30;99.90
17053;DHT22;8643;48.824;11.422;2023-01-24T03:02:16;1.70;99.90
17053;DHT22;8643;48.824;11.422;2023-01-24T03:09:49;1.70;99.90
17053;DHT22;8643;48.824;11.422;2023-01-24T03:15:10;1.70;99.90
17053;DHT22;8643;48.824;11.422;2023-01-24T03:17:58;1.80;99.90
17053;DHT22;8643;48.824;11.422;2023-01-24T03:20:46;1.70;99.90
17053;DHT22;8643;48.824;11.422;2023-01-24T03:29:09;1.70;99.90
17053;DHT22;8643;48.824;11.422;2023-01-24T03:31:57;1.70;99.90
17053;DHT22;8643;48.824;11.422;2023-01-24T03:34:43;1.70;99.90
17053;DHT22;8643;48.824;11.422;2023-01-24T03:37:22;1.70;99.90
17053;DHT22;8643;48.824;11.422;2023-01-24T03:45:23;1.70;99.90
17053;DHT22;8643;48.824;11.422;2023-01-24T03:47:55;1.70;99.90
17053;DHT22;8643;48.824;11.422;2023-01-24T03:50:28;1.70;99.90
17053;DHT22;8643;48.824;11.422;2023-01-24T03:53:16;1.70;99.90
17053;DHT22;8643;48.824;11.422;2023-01-24T03:55:51;0.10;99.90
17053;DHT22;8643;48.824;11.422;2023-01-24T03:58:22;1.70;99.90
17053;DHT22;8643;48.824;11.422;2023-01-24T04:00:54;1.80;99.90
17053;DHT22;8643;48.824;11.422;2023-01-24T04:03:43;1.80;99.90
17053;DHT22;8643;48.824;11.422;2023-01-24T04:06:11;1.70;99.90
17053;DHT22;8643;48.824;11.422;2023-01-24T04:13:38;1.70;99.90
17053;DHT22;8643;48.824;11.422;2023-01-24T04:16:11;1.80;99.90
17053;DHT22;8643;48.824;11.422;2023-01-24T04:18:57;3.10;99.90
17053;DHT22;8643;48.824;11.422;2023-01-24T04:21:27;1.70;99.90
17053;DHT22;8643;48.824;11.422;2023-01-24T04:23:57;1.70;99.90
17053;DHT22;8643;48.824;11.422;2023-01-24T04:28:56;1.60;99.90
17053;DHT22;8643;48.824;11.422;2023-01-24T04:31:27;1.70;99.90
17053;DHT22;8643;48.824;11.422;2023-01-24T04:39:12;1.70;99.90
17053;DHT22;8643;48.824;11.422;2023-01-24T04:41:56;2.00;99.90
17053;DHT22;8643;48.824;11.422;2023-01-24T04:46:55;2.20;99.90
17053;DHT22;8643;48.824;11.422;2023-01-24T04:49:23;1.80;99.90
17053;DHT22;8643;48.824;11.422;2023-01-24T04:51:52;1.80;99.90
17053;DHT22;8643;48.824;11.422;2023-01-24T05:09:52;1.80;99.90
17053;DHT22;8643;48.824;11.422;2023-01-24T05:12:22;1.80;99.90
17053;DHT22;8643;48.824;11.422;2023-01-24T05:22:24;1.70;99.90
17053;DHT22;8643;48.824;11.422;2023-01-24T05:27:21;1.70;99.90
17053;DHT22;8643;48.824;11.422;2023-01-24T05:32:28;1.60;99.90
17053;DHT22;8643;48.824;11.422;2023-01-24T05:34:56;1.60;99.90
17053;DHT22;8643;48.824;11.422;2023-01-24T05:49:55;0.80;99.90
17053;DHT22;8643;48.824;11.422;2023-01-24T05:52:23;1.70;99.90
17053;DHT22;8643;48.824;11.422;2023-01-24T05:54:54;2.90;99.90
17053;DHT22;8643;48.824;11.422;2023-01-24T06:00:13;1.70;99.90
17053;DHT22;8643;48.824;11.422;2023-01-24T06:11:43;1.70;99.90
17053;DHT22;8643;48.824;11.422;2023-01-24T06:16:48;1.60;99.90
17053;DHT22;8643;48.824;11.422;2023-01-24T06:21:50;3.00;99.90
17053;DHT22;8643;48.824;11.422;2023-01-24T06:27:11;1.70;99.90
17053;DHT22;8643;48.824;11.422;2023-01-24T06:37:44;4.10;99.90
17053;DHT22;8643;48.824;11.422;2023-01-24T06:40:15;2.60;99.90
17053;DHT22;8643;48.824;11.422;2023-01-24T06:42:48;1.70;99.90
17053;DHT22;8643;48.824;11.422;2023-01-24T06:45:17;1.70;99.90
17053;DHT22;8643;48.824;11.422;2023-01-24T06:50:17;1.70;99.90
17053;DHT22;8643;48.824;11.422;2023-01-24T06:52:48;1.70;99.90
17053;DHT22;8643;48.824;11.422;2023-01-24T07:00:22;1.70;99.90
17053;DHT22;8643;48.824;11.422;2023-01-24T07:02:57;1.80;99.90
17053;DHT22;8643;48.824;11.422;2023-01-24T07:07:55;1.70;99.90
17053;DHT22;8643;48.824;11.422;2023-01-24T07:12:54;1.80;99.90
17053;DHT22;8643;48.824;11.422;2023-01-24T07:17:52;1.80;99.90
17053;DHT22;8643;48.824;11.422;2023-01-24T07:20:21;1.70;99.90
17053;DHT22;8643;48.824;11.422;2023-01-24T07:22:50;1.80;99.90
17053;DHT22;8643;48.824;11.422;2023-01-24T07:25:20;1.80;99.90
17053;DHT22;8643;48.824;11.422;2023-01-24T07:27:50;1.10;99.90
17053;DHT22;8643;48.824;11.422;2023-01-24T07:30:20;1.90;99.90
17053;DHT22;8643;48.824;11.422;2023-01-24T07:37:46;3.30;99.90
17053;DHT22;8643;48.824;11.422;2023-01-24T07:42:44;1.90;99.90
17053;DHT22;8643;48.824;11.422;2023-01-24T07:45:13;1.90;99.90
17053;DHT22;8643;48.824;11.422;2023-01-24T07:47:43;2.00;99.90
17053;DHT22;8643;48.824;11.422;2023-01-24T08:00:07;2.00;99.90
17053;DHT22;8643;48.824;11.422;2023-01-24T08:02:38;2.00;99.90
17053;DHT22;8643;48.824;11.422;2023-01-24T08:05:08;2.10;99.90
17053;DHT22;8643;48.824;11.422;2023-01-24T08:07:37;2.10;99.90
17053;DHT22;8643;48.824;11.422;2023-01-24T08:15:05;2.10;99.90
17053;DHT22;8643;48.824;11.422;2023-01-24T08:20:09;2.30;99.90
17053;DHT22;8643;48.824;11.422;2023-01-24T08:27:52;2.40;99.90
17053;DHT22;8643;48.824;11.422;2023-01-24T08:32:59;2.40;99.90
17053;DHT22;8643;48.824;11.422;2023-01-24T08:35:30;2.50;99.90
17053;DHT22;8643;48.824;11.422;2023-01-24T08:37:59;2.40;99.90
17053;DHT22;8643;48.824;11.422;2023-01-24T08:43:07;2.50;99.90
17053;DHT22;8643;48.824;11.422;2023-01-24T08:50:35;2.60;99.90
17053;DHT22;8643;48.824;11.422;2023-01-24T08:55:32;2.70;99.90
17053;DHT22;8643;48.824;11.422;2023-01-24T08:58:02;2.80;99.90
17053;DHT22;8643;48.824;11.422;2023-01-24T09:15:27;3.10;99.90
17053;DHT22;8643;48.824;11.422;2023-01-24T09:17:59;3.10;99.90
17053;DHT22;8643;48.824;11.422;2023-01-24T09:22:57;3.20;99.90
17053;DHT22;8643;48.824;11.422;2023-01-24T09:25:27;3.30;99.90
17053;DHT22;8643;48.824;11.422;2023-01-24T09:32:58;3.40;99.90
17053;DHT22;8643;48.824;11.422;2023-01-24T09:40:39;3.60;99.90
17053;DHT22;8643;48.824;11.422;2023-01-24T09:43:19;3.60;99.90
17053;DHT22;8643;48.824;11.422;2023-01-24T09:46:02;3.60;99.90
17053;DHT22;8643;48.824;11.422;2023-01-24T09:48:38;3.70;99.90
17053;DHT22;8643;48.824;11.422;2023-01-24T09:51:14;3.70;99.90
17053;DHT22;8643;48.824;11.422;2023-01-24T09:53:50;3.70;99.90
17053;DHT22;8643;48.824;11.422;2023-01-24T09:56:25;3.80;99.90
17053;DHT22;8643;48.824;11.422;2023-01-24T09:59:09;3.70;99.90
17053;DHT22;8643;48.824;11.422;2023-01-24T10:01:46;3.80;99.90
17053;DHT22;8643;48.824;11.422;2023-01-24T10:04:17;3.70;99.90
17053;DHT22;8643;48.824;11.422;2023-01-24T10:07:20;3.70;99.90
17053;DHT22;8643;48.824;11.422;2023-01-24T10:10:15;3.80;99.90
17053;DHT22;8643;48.824;11.422;2023-01-24T10:13:00;3.80;99.90
17053;DHT22;8643;48.824;11.422;2023-01-24T10:15:43;3.80;99.90
17053;DHT22;8643;48.824;11.422;2023-01-24T10:24:10;3.90;99.90
17053;DHT22;8643;48.824;11.422;2023-01-24T10:26:46;3.90;99.90
17053;DHT22;8643;48.824;11.422;2023-01-24T10:29:20;3.90;99.90
17053;DHT22;8643;48.824;11.422;2023-01-24T10:31:56;3.90;99.90
17053;DHT22;8643;48.824;11.422;2023-01-24T10:34:32;3.90;99.90
17053;DHT22;8643;48.824;11.422;2023-01-24T10:37:06;3.80;99.90
17053;DHT22;8643;48.824;11.422;2023-01-24T10:42:20;3.80;99.90
17053;DHT22;8643;48.824;11.422;2023-01-24T10:47:40;3.90;99.90
17053;DHT22;8643;48.824;11.422;2023-01-24T10:52:44;3.80;99.90
17053;DHT22;8643;48.824;11.422;2023-01-24T10:55:26;3.90;99.90
17053;DHT22;8643;48.824;11.422;2023-01-24T10:58:02;5.20;99.90
17053;DHT22;8643;48.824;11.422;2023-01-24T11:03:30;4.30;99.90
17053;DHT22;8643;48.824;11.422;2023-01-24T11:06:02;4.00;99.90
17053;DHT22;8643;48.824;11.422;2023-01-24T11:13:46;4.10;99.90
17053;DHT22;8643;48.824;11.422;2023-01-24T11:16:23;4.10;99.90
17053;DHT22;8643;48.824;11.422;2023-01-24T11:18:57;4.60;99.90
17053;DHT22;8643;48.824;11.422;2023-01-24T11:21:31;4.20;99.90
17053;DHT22;8643;48.824;11.422;2023-01-24T11:24:13;4.20;99.90
17053;DHT22;8643;48.824;11.422;2023-01-24T11:27:03;4.20;99.90
17053;DHT22;8643;48.824;11.422;2023-01-24T11:29:32;4.20;99.90
17053;DHT22;8643;48.824;11.422;2023-01-24T11:32:21;4.10;99.90
17053;DHT22;8643;48.824;11.422;2023-01-24T11:35:02;4.20;99.90
17053;DHT22;8643;48.824;11.422;2023-01-24T11:37:47;4.20;99.90
17053;DHT22;8643;48.824;11.422;2023-01-24T11:40:33;4.10;99.90
17053;DHT22;8643;48.824;11.422;2023-01-24T11:43:26;4.10;99.90
17053;DHT22;8643;48.824;11.422;2023-01-24T11:46:19;4.10;99.90
17053;DHT22;8643;48.824;11.422;2023-01-24T11:52:20;4.10;99.90
17053;DHT22;8643;48.824;11.422;2023-01-24T11:55:07;4.10;99.90
17053;DHT22;8643;48.824;11.422;2023-01-24T11:57:47;4.10;99.90
17053;DHT22;8643;48.824;11.422;2023-01-24T12:00:31;0.00;99.90
17053;DHT22;8643;48.824;11.422;2023-01-24T12:03:20;4.10;99.90
17053;DHT22;8643;48.824;11.422;2023-01-24T12:06:12;4.10;99.90
17053;DHT22;8643;48.824;11.422;2023-01-24T12:08:59;4.10;99.90
17053;DHT22;8643;48.824;11.422;2023-01-24T12:11:40;4.10;99.90
17053;DHT22;8643;48.824;11.422;2023-01-24T12:17:35;4.20;99.90
17053;DHT22;8643;48.824;11.422;2023-01-24T12:20:31;3.70;99.90
17053;DHT22;8643;48.824;11.422;2023-01-24T12:23:19;4.10;99.90
17053;DHT22;8643;48.824;11.422;2023-01-24T12:25:56;4.80;99.90
17053;DHT22;8643;48.824;11.422;2023-01-24T12:28:34;4.20;99.90
17053;DHT22;8643;48.824;11.422;2023-01-24T12:31:11;4.20;99.90
17053;DHT22;8643;48.824;11.422;2023-01-24T12:33:50;4.10;99.90
17053;DHT22;8643;48.824;11.422;2023-01-24T12:36:32;4.20;99.90
17053;DHT22;8643;48.824;11.422;2023-01-24T12:44:26;4.20;99.90
17053;DHT22;8643;48.824;11.422;2023-01-24T12:55:14;4.20;99.90
17053;DHT22;8643;48.824;11.422;2023-01-24T12:57:50;4.10;99.90
17053;DHT22;8643;48.824;11.422;2023-01-24T13:03:33;4.10;99.90
17053;DHT22;8643;48.824;11.422;2023-01-24T13:06:24;4.10;99.90
17053;DHT22;8643;48.824;11.422;2023-01-24T13:09:08;4.10;99.90
17053;DHT22;8643;48.824;11.422;2023-01-24T13:11:51;4.00;99.90
17053;DHT22;8643;48.824;11.422;2023-01-24T13:14:25;4.00;99.90
17053;DHT22;8643;48.824;11.422;2023-01-24T13:20:37;3.90;99.90
17053;DHT22;8643;48.824;11.422;2023-01-24T13:26:31;3.90;99.90
17053;DHT22;8643;48.824;11.422;2023-01-24T13:29:25;4.00;99.90
17053;DHT22;8643;48.824;11.422;2023-01-24T13:32:07;4.00;99.90
17053;DHT22;8643;48.824;11.422;2023-01-24T13:34:42;4.00;99.90
17053;DHT22;8643;48.824;11.422;2023-01-24T13:37:18;3.90;99.90
17053;DHT22;8643;48.824;11.422;2023-01-24T13:39:59;4.00;99.90
17053;DHT22;8643;48.824;11.422;2023-01-24T13:42:35;3.90;99.90
17053;DHT22;8643;48.824;11.422;2023-01-24T13:48:53;3.80;99.90
17053;DHT22;8643;48.824;11.422;2023-01-24T13:51:43;3.80;99.90
17053;DHT22;8643;48.824;11.422;2023-01-24T13:54:33;3.80;99.90
17053;DHT22;8643;48.824;11.422;2023-01-24T13:57:28;3.80;99.90
17053;DHT22;8643;48.824;11.422;2023-01-24T14:00:14;3.70;99.90
17053;DHT22;8643;48.824;11.422;2023-01-24T14:03:01;3.80;99.90
17053;DHT22;8643;48.824;11.422;2023-01-24T14:05:42;3.70;99.90
17053;DHT22;8643;48.824;11.422;2023-01-24T14:08:31;3.70;99.90
17053;DHT22;8643;48.824;11.422;2023-01-24T14:11:19;3.70;99.90
17053;DHT22;8643;48.824;11.422;2023-01-24T14:14:24;3.70;99.90
17053;DHT22;8643;48.824;11.422;2023-01-24T14:17:03;3.60;99.90
17053;DHT22;8643;48.824;11.422;2023-01-24T14:19:49;3.70;99.90
17053;DHT22;8643;48.824;11.422;2023-01-24T14:22:28;3.60;99.90
17053;DHT22;8643;48.824;11.422;2023-01-24T14:28:22;3.60;99.90
17053;DHT22;8643;48.824;11.422;2023-01-24T14:31:04;3.60;99.90
17053;DHT22;8643;48.824;11.422;2023-01-24T14:33:47;3.60;99.90
17053;DHT22;8643;48.824;11.422;2023-01-24T14:36:26;3.60;99.90
17053;DHT22;8643;48.824;11.422;2023-01-24T14:39:27;3.60;99.90
17053;DHT22;8643;48.824;11.422;2023-01-24T14:41:57;3.60;99.90
17053;DHT22;8643;48.824;11.422;2023-01-24T14:44:29;4.80;99.90
17053;DHT22;8643;48.824;11.422;2023-01-24T14:47:02;3.50;99.90
17053;DHT22;8643;48.824;11.422;2023-01-24T14:49:33;3.50;99.90
17053;DHT22;8643;48.824;11.422;2023-01-24T14:54:50;3.30;99.90
17053;DHT22;8643;48.824;11.422;2023-01-24T14:57:21;3.30;99.90
17053;DHT22;8643;48.824;11.422;2023-01-24T15:00:02;3.30;99.90
17053;DHT22;8643;48.824;11.422;2023-01-24T15:02:34;3.30;99.90
17053;DHT22;8643;48.824;11.422;2023-01-24T15:05:21;3.30;99.90
17053;DHT22;8643;48.824;11.422;2023-01-24T15:07:54;3.20;99.90
17053;DHT22;8643;48.824;11.422;2023-01-24T15:10:24;3.20;99.90
17053;DHT22;8643;48.824;11.422;2023-01-24T15:12:54;3.00;99.90
17053;DHT22;8643;48.824;11.422;2023-01-24T15:18:00;-0.50;99.90
17053;DHT22;8643;48.824;11.422;2023-01-24T15:20:31;3.00;99.90
17053;DHT22;8643;48.824;11.422;2023-01-24T15:23:02;3.00;99.90
17053;DHT22;8643;48.824;11.422;2023-01-24T15:25:36;3.00;99.90
17053;DHT22;8643;48.824;11.422;2023-01-24T15:28:10;3.00;99.90
17053;DHT22;8643;48.824;11.422;2023-01-24T15:30:51;3.00;99.90
17053;DHT22;8643;48.824;11.422;2023-01-24T15:33:20;2.80;99.90
17053;DHT22;8643;48.824;11.422;2023-01-24T15:35:49;3.00;99.90
17053;DHT22;8643;48.824;11.422;2023-01-24T15:38:24;2.90;99.90
17053;DHT22;8643;48.824;11.422;2023-01-24T15:41:16;2.90;99.90
17053;DHT22;8643;48.824;11.422;2023-01-24T15:43:52;2.90;99.90
17053;DHT22;8643;48.824;11.422;2023-01-24T15:46:31;2.90;99.90
17053;DHT22;8643;48.824;11.422;2023-01-24T15:49:34;2.80;99.90
17053;DHT22;8643;48.824;11.422;2023-01-24T15:57:29;2.80;99.90
17053;DHT22;8643;48.824;11.422;2023-01-24T16:05:20;2.80;99.90
17053;DHT22;8643;48.824;11.422;2023-01-24T16:10:19;2.80;99.90
17053;DHT22;8643;48.824;11.422;2023-01-24T16:12:50;2.90;99.90
17053;DHT22;8643;48.824;11.422;2023-01-24T16:15:20;2.70;99.90
17053;DHT22;8643;48.824;11.422;2023-01-24T16:17:49;2.70;99.90
17053;DHT22;8643;48.824;11.422;2023-01-24T16:20:19;2.60;99.90
17053;DHT22;8643;48.824;11.422;2023-01-24T16:25:24;2.50;99.90
17053;DHT22;8643;48.824;11.422;2023-01-24T16:37:56;2.60;99.90
17053;DHT22;8643;48.824;11.422;2023-01-24T16:42:55;2.50;99.90
17053;DHT22;8643;48.824;11.422;2023-01-24T16:45:24;2.50;99.90
17053;DHT22;8643;48.824;11.422;2023-01-24T16:47:55;6.70;99.90
17053;DHT22;8643;48.824;11.422;2023-01-24T16:57:52;2.50;99.90
17053;DHT22;8643;48.824;11.422;2023-01-24T17:02:50;2.40;99.90
17053;DHT22;8643;48.824;11.422;2023-01-24T17:05:19;2.40;99.90
17053;DHT22;8643;48.824;11.422;2023-01-24T17:12:47;1.10;99.90
17053;DHT22;8643;48.824;11.422;2023-01-24T17:15:17;2.30;99.90
17053;DHT22;8643;48.824;11.422;2023-01-24T17:22:42;2.20;99.90
17053;DHT22;8643;48.824;11.422;2023-01-24T17:25:11;2.20;99.90
17053;DHT22;8643;48.824;11.422;2023-01-24T17:27:40;2.90;99.90
17053;DHT22;8643;48.824;11.422;2023-01-24T17:30:09;2.20;99.90
17053;DHT22;8643;48.824;11.422;2023-01-24T17:32:40;2.10;99.90
17053;DHT22;8643;48.824;11.422;2023-01-24T17:37:41;2.20;99.90
17053;DHT22;8643;48.824;11.422;2023-01-24T17:40:11;2.10;99.90
17053;DHT22;8643;48.824;11.422;2023-01-24T17:47:41;2.10;99.90
17053;DHT22;8643;48.824;11.422;2023-01-24T17:50:10;2.00;99.90
17053;DHT22;8643;48.824;11.422;2023-01-24T17:52:38;2.00;99.90
17053;DHT22;8643;48.824;11.422;2023-01-24T18:00:06;2.10;99.90
17053;DHT22;8643;48.824;11.422;2023-01-24T18:05:12;2.10;99.90
17053;DHT22;8643;48.824;11.422;2023-01-24T18:15:10;2.00;99.90
17053;DHT22;8643;48.824;11.422;2023-01-24T18:20:10;1.90;99.90
17053;DHT22;8643;48.824;11.422;2023-01-24T18:25:11;1.90;99.90
17053;DHT22;8643;48.824;11.422;2023-01-24T18:27:40;2.00;99.90
17053;DHT22;8643;48.824;11.422;2023-01-24T18:30:09;1.90;99.90
17053;DHT22;8643;48.824;11.422;2023-01-24T18:32:40;2.00;99.90
17053;DHT22;8643;48.824;11.422;2023-01-24T18:42:41;1.90;99.90
17053;DHT22;8643;48.824;11.422;2023-01-24T18:45:13;2.00;99.90
17053;DHT22;8643;48.824;11.422;2023-01-24T18:50:12;1.90;99.90
17053;DHT22;8643;48.824;11.422;2023-01-24T19:00:11;1.90;99.90
17053;DHT22;8643;48.824;11.422;2023-01-24T19:02:43;2.10;99.90
17053;DHT22;8643;48.824;11.422;2023-01-24T19:05:13;1.90;99.90
17053;DHT22;8643;48.824;11.422;2023-01-24T19:10:14;1.80;99.90
17053;DHT22;8643;48.824;11.422;2023-01-24T19:12:42;1.80;99.90
17053;DHT22;8643;48.824;11.422;2023-01-24T19:15:14;1.80;99.90
17053;DHT22;8643;48.824;11.422;2023-01-24T19:17:48;1.90;99.90
17053;DHT22;8643;48.824;11.422;2023-01-24T19:20:19;1.80;99.90
17053;DHT22;8643;48.824;11.422;2023-01-24T19:22:47;1.80;99.90
17053;DHT22;8643;48.824;11.422;2023-01-24T19:30:35;1.80;99.90
17053;DHT22;8643;48.824;11.422;2023-01-24T19:45:37;1.60;99.90
17053;DHT22;8643;48.824;11.422;2023-01-24T19:50:38;1.70;99.90
17053;DHT22;8643;48.824;11.422;2023-01-24T20:00:39;1.70;99.90
17053;DHT22;8643;48.824;11.422;2023-01-24T20:03:10;1.60;99.90
17053;DHT22;8643;48.824;11.422;2023-01-24T20:05:40;2.70;99.90
17053;DHT22;8643;48.824;11.422;2023-01-24T20:13:14;1.60;99.90
17053;DHT22;8643;48.824;11.422;2023-01-24T20:16:01;1.60;99.90
17053;DHT22;8643;48.824;11.422;2023-01-24T20:21:01;1.60;99.90
17053;DHT22;8643;48.824;11.422;2023-01-24T20:23:29;1.60;99.90
17053;DHT22;8643;48.824;11.422;2023-01-24T20:26:02;1.50;99.90
17053;DHT22;8643;48.824;11.422;2023-01-24T20:31:03;1.60;99.90
17053;DHT22;8643;48.824;11.422;2023-01-24T20:36:06;1.50;99.90
17053;DHT22;8643;48.824;11.422;2023-01-24T20:38:38;1.60;99.90
17053;DHT22;8643;48.824;11.422;2023-01-24T20:41:09;1.50;99.90
17053;DHT22;8643;48.824;11.422;2023-01-24T20:43:40;1.50;99.90
17053;DHT22;8643;48.824;11.422;2023-01-24T20:46:11;1.50;99.90
17053;DHT22;8643;48.824;11.422;2023-01-24T20:56:16;1.40;99.90
17053;DHT22;8643;48.824;11.422;2023-01-24T20:58:49;1.50;99.90
17053;DHT22;8643;48.824;11.422;2023-01-24T21:01:20;1.40;99.90
17053;DHT22;8643;48.824;11.422;2023-01-24T21:03:50;1.50;99.90
17053;DHT22;8643;48.824;11.422;2023-01-24T21:06:21;1.30;99.90
17053;DHT22;8643;48.824;11.422;2023-01-24T21:11:20;1.40;99.90
17053;DHT22;8643;48.824;11.422;2023-01-24T21:13:52;1.40;99.90
17053;DHT22;8643;48.824;11.422;2023-01-24T21:16:22;1.40;99.90
17053;DHT22;8643;48.824;11.422;2023-01-24T21:18:52;1.40;99.90
17053;DHT22;8643;48.824;11.422;2023-01-24T21:21:26;1.40;99.90
17053;DHT22;8643;48.824;11.422;2023-01-24T21:26:26;1.40;99.90
17053;DHT22;8643;48.824;11.422;2023-01-24T21:28:55;1.30;99.90
17053;DHT22;8643;48.824;11.422;2023-01-24T21:33:55;1.40;99.90
17053;DHT22;8643;48.824;11.422;2023-01-24T21:36:25;1.40;99.90
17053;DHT22;8643;48.824;11.422;2023-01-24T21:51:50;1.30;99.90
17053;DHT22;8643;48.824;11.422;2023-01-24T21:54:22;1.40;99.90
17053;DHT22;8643;48.824;11.422;2023-01-24T21:56:54;1.40;99.90
17053;DHT22;8643;48.824;11.422;2023-01-24T22:02:27;1.40;99.90
17053;DHT22;8643;48.824;11.422;2023-01-24T22:07:29;1.40;99.90
17053;DHT22;8643;48.824;11.422;2023-01-24T22:12:28;1.40;99.90
17053;DHT22;8643;48.824;11.422;2023-01-24T22:19:57;1.40;99.90
17053;DHT22;8643;48.824;11.422;2023-01-24T22:25:35;1.30;99.90
17053;DHT22;8643;48.824;11.422;2023-01-24T22:30:47;1.30;99.90
17053;DHT22;8643;48.824;11.422;2023-01-24T22:33:17;1.30;99.90
17053;DHT22;8643;48.824;11.422;2023-01-24T22:35:46;1.30;99.90
17053;DHT22;8643;48.824;11.422;2023-01-24T22:38:20;1.40;99.90
17053;DHT22;8643;48.824;11.422;2023-01-24T22:40:53;1.40;99.90
17053;DHT22;8643;48.824;11.422;2023-01-24T22:43:23;1.40;99.90
17053;DHT22;8643;48.824;11.422;2023-01-24T22:45:52;1.30;99.90
17053;DHT22;8643;48.824;11.422;2023-01-24T22:48:20;1.40;99.90
17053;DHT22;8643;48.824;11.422;2023-01-24T22:50:54;0.10;99.90
17053;DHT22;8643;48.824;11.422;2023-01-24T22:53:24;-1.90;99.90
17053;DHT22;8643;48.824;11.422;2023-01-24T22:55:53;1.30;99.90
17053;DHT22;8643;48.824;11.422;2023-01-24T22:58:24;1.40;99.90
17053;DHT22;8643;48.824;11.422;2023-01-24T23:00:53;1.40;99.90
17053;DHT22;8643;48.824;11.422;2023-01-24T23:03:21;1.40;99.90
17053;DHT22;8643;48.824;11.422;2023-01-24T23:05:49;1.40;99.90
17053;DHT22;8643;48.824;11.422;2023-01-24T23:08:18;1.40;99.90
17053;DHT22;8643;48.824;11.422;2023-01-24T23:10:48;1.40;99.90
17053;DHT22;8643;48.824;11.422;2023-01-24T23:13:16;1.40;99.90
17053;DHT22;8643;48.824;11.422;2023-01-24T23:18:38;1.40;99.90
17053;DHT22;8643;48.824;11.422;2023-01-24T23:21:24;1.30;99.90
17053;DHT22;8643;48.824;11.422;2023-01-24T23:23:57;1.40;99.90
17053;DHT22;8643;48.824;11.422;2023-01-24T23:26:28;1.40;99.90
17053;DHT22;8643;48.824;11.422;2023-01-24T23:32:16;1.50;99.90
17053;DHT22;8643;48.824;11.422;2023-01-24T23:34:52;1.50;99.90
17053;DHT22;8643;48.824;11.422;2023-01-24T23:37:22;1.40;99.90
17053;DHT22;8643;48.824;11.422;2023-01-24T23:39:52;1.40;99.90
17053;DHT22;8643;48.824;11.422;2023-01-24T23:42:24;1.40;99.90
17053;DHT22;8643;48.824;11.422;2023-01-24T23:44:53;-0.80;99.90
17053;DHT22;8643;48.824;11.422;2023-01-24T23:47:23;1.40;99.90
17053;DHT22;8643;48.824;11.422;2023-01-24T23:52:21;1.40;99.90
17053;DHT22;8643;48.824;11.422;2023-01-24T23:54:50;1.40;99.90
17053;DHT22;8643;48.824;11.422;2023-01-24T23:57:18;1.40;99.90
17053;DHT22;8643;48.824;11.422;2023-01-24T23:59:48;2.40;99.90
